createdAt,value
2018-08-31T00:00:29.561Z,14.1
2018-08-31T00:01:29.474Z,14
2018-08-31T00:02:29.373Z,13.9
2018-08-31T00:03:29.293Z,13.9
2018-08-31T00:04:29.627Z,13.9
2018-08-31T00:05:29.566Z,13.9
2018-08-31T00:06:29.483Z,14
2018-08-31T00:07:29.409Z,14
2018-08-31T00:08:29.318Z,14
2018-08-31T00:09:29.242Z,13.9
2018-08-31T00:10:29.153Z,13.9
2018-08-31T00:11:29.077Z,13.9
2018-08-31T00:12:28.985Z,13.9
2018-08-31T00:13:28.889Z,13.9
2018-08-31T00:14:29.255Z,13.9
2018-08-31T00:15:29.152Z,13.9
2018-08-31T00:16:29.052Z,13.9
2018-08-31T00:17:29.221Z,13.9
2018-08-31T00:18:29.125Z,14
2018-08-31T00:19:29.062Z,14
2018-08-31T00:20:28.965Z,14
2018-08-31T00:21:28.868Z,14.1
2018-08-31T00:22:28.771Z,14.1
2018-08-31T00:23:28.707Z,14.1
2018-08-31T00:24:29.055Z,14.1
2018-08-31T00:25:28.974Z,14
2018-08-31T00:26:28.891Z,13.9
2018-08-31T00:27:28.798Z,13.9
2018-08-31T00:28:28.713Z,14
2018-08-31T00:29:28.632Z,14
2018-08-31T00:30:28.597Z,14
2018-08-31T00:31:28.504Z,14
2018-08-31T00:32:28.420Z,13.9
2018-08-31T00:33:28.319Z,13.9
2018-08-31T00:34:28.708Z,13.9
2018-08-31T00:35:28.648Z,14
2018-08-31T00:36:28.597Z,14
2018-08-31T00:37:28.532Z,14
2018-08-31T00:38:28.426Z,14
2018-08-31T00:39:28.343Z,14
2018-08-31T00:40:28.261Z,14
2018-08-31T00:41:28.201Z,13.9
2018-08-31T00:42:28.105Z,14
2018-08-31T00:43:28.016Z,14
2018-08-31T00:44:28.382Z,14
2018-08-31T00:45:28.281Z,14
2018-08-31T00:46:28.208Z,14
2018-08-31T00:47:28.136Z,14.1
2018-08-31T00:48:28.046Z,14.1
2018-08-31T00:49:27.938Z,14.1
2018-08-31T00:50:27.847Z,14
2018-08-31T00:51:27.767Z,14.1
2018-08-31T00:52:27.690Z,14.1
2018-08-31T00:53:27.624Z,14.1
2018-08-31T00:54:28.015Z,14
2018-08-31T00:55:27.947Z,14.1
2018-08-31T00:56:27.854Z,14.1
2018-08-31T00:57:27.747Z,14.1
2018-08-31T00:58:27.657Z,14.1
2018-08-31T00:59:27.595Z,14.1
2018-08-31T01:00:27.520Z,14.1
2018-08-31T01:01:27.451Z,14.1
2018-08-31T01:02:27.360Z,14.1
2018-08-31T01:03:27.282Z,14
2018-08-31T01:04:27.647Z,14
2018-08-31T01:05:27.571Z,14
2018-08-31T01:06:27.488Z,14
2018-08-31T01:07:27.416Z,13.9
2018-08-31T01:08:27.323Z,13.9
2018-08-31T01:09:27.259Z,13.9
2018-08-31T01:10:27.192Z,13.9
2018-08-31T01:11:27.116Z,13.9
2018-08-31T01:12:27.019Z,13.9
2018-08-31T01:13:26.928Z,13.8
2018-08-31T01:14:27.282Z,13.8
2018-08-31T01:15:27.268Z,13.8
2018-08-31T01:16:27.180Z,13.8
2018-08-31T01:17:27.082Z,13.8
2018-08-31T01:18:28.006Z,13.7
2018-08-31T01:19:27.913Z,13.7
2018-08-31T01:20:27.813Z,13.7
2018-08-31T01:21:27.753Z,13.7
2018-08-31T01:22:27.654Z,13.7
2018-08-31T01:23:27.558Z,13.6
2018-08-31T01:24:27.981Z,13.6
2018-08-31T01:25:28.108Z,13.6
2018-08-31T01:26:28.044Z,13.6
2018-08-31T01:27:28.018Z,13.6
2018-08-31T01:28:27.928Z,13.6
2018-08-31T01:29:27.851Z,13.6
2018-08-31T01:30:27.769Z,13.6
2018-08-31T01:31:27.710Z,13.6
2018-08-31T01:32:27.635Z,13.6
2018-08-31T01:33:27.553Z,13.6
2018-08-31T01:34:27.900Z,13.6
2018-08-31T01:35:27.793Z,13.5
2018-08-31T01:36:27.709Z,13.5
2018-08-31T01:37:27.662Z,13.5
2018-08-31T01:38:27.573Z,13.5
2018-08-31T01:39:27.471Z,13.5
2018-08-31T01:40:27.384Z,13.5
2018-08-31T01:41:27.286Z,13.4
2018-08-31T01:42:27.195Z,13.4
2018-08-31T01:43:27.125Z,13.4
2018-08-31T01:44:27.510Z,13.4
2018-08-31T01:45:27.437Z,13.4
2018-08-31T01:46:27.366Z,13.4
2018-08-31T01:47:27.268Z,13.4
2018-08-31T01:48:27.190Z,13.4
2018-08-31T01:49:27.132Z,13.3
2018-08-31T01:50:27.041Z,13.3
2018-08-31T01:51:26.947Z,13.3
2018-08-31T01:52:26.876Z,13.4
2018-08-31T01:53:26.789Z,13.4
2018-08-31T01:54:27.181Z,13.4
2018-08-31T01:55:27.110Z,13.3
2018-08-31T01:56:27.039Z,13.4
2018-08-31T01:57:26.978Z,13.3
2018-08-31T01:58:26.906Z,13.3
2018-08-31T01:59:26.815Z,13.4
2018-08-31T02:00:26.748Z,13.3
2018-08-31T02:01:26.696Z,13.2
2018-08-31T02:02:26.600Z,13.2
2018-08-31T02:03:26.504Z,13.2
2018-08-31T02:04:26.860Z,13.3
2018-08-31T02:05:26.808Z,13.3
2018-08-31T02:06:26.705Z,13.3
2018-08-31T02:07:26.636Z,13.3
2018-08-31T02:08:26.540Z,13.3
2018-08-31T02:09:26.452Z,13.3
2018-08-31T02:10:26.372Z,13.3
2018-08-31T02:11:26.281Z,13.3
2018-08-31T02:12:26.185Z,13.3
2018-08-31T02:13:26.352Z,13.3
2018-08-31T02:14:26.738Z,13.3
2018-08-31T02:15:26.645Z,13.4
2018-08-31T02:16:26.577Z,13.4
2018-08-31T02:17:26.475Z,13.4
2018-08-31T02:18:26.371Z,13.4
2018-08-31T02:19:26.310Z,13.5
2018-08-31T02:20:26.222Z,13.5
2018-08-31T02:21:26.151Z,13.4
2018-08-31T02:22:26.074Z,13.4
2018-08-31T02:23:25.980Z,13.3
2018-08-31T02:24:26.352Z,13.3
2018-08-31T02:25:26.291Z,13.5
2018-08-31T02:26:26.207Z,13.4
2018-08-31T02:27:26.114Z,13.4
2018-08-31T02:28:26.022Z,13.4
2018-08-31T02:29:25.924Z,13.4
2018-08-31T02:30:25.838Z,13.5
2018-08-31T02:31:25.791Z,13.4
2018-08-31T02:32:25.722Z,13.4
2018-08-31T02:33:25.626Z,13.4
2018-08-31T02:34:25.978Z,13.4
2018-08-31T02:35:25.894Z,13.4
2018-08-31T02:36:25.913Z,13.5
2018-08-31T02:37:25.971Z,13.5
2018-08-31T02:38:25.896Z,13.6
2018-08-31T02:39:26.359Z,13.6
2018-08-31T02:40:26.785Z,13.7
2018-08-31T02:41:26.715Z,13.7
2018-08-31T02:42:26.635Z,13.8
2018-08-31T02:43:26.540Z,13.7
2018-08-31T02:44:26.940Z,13.7
2018-08-31T02:45:26.869Z,13.8
2018-08-31T02:46:26.774Z,13.9
2018-08-31T02:47:26.716Z,13.9
2018-08-31T02:48:26.655Z,13.9
2018-08-31T02:49:26.623Z,13.8
2018-08-31T02:50:26.759Z,13.9
2018-08-31T02:51:26.691Z,13.9
2018-08-31T02:52:26.597Z,13.9
2018-08-31T02:53:26.530Z,13.8
2018-08-31T02:54:26.907Z,13.8
2018-08-31T02:55:26.821Z,13.8
2018-08-31T02:56:26.744Z,13.8
2018-08-31T02:57:26.674Z,13.7
2018-08-31T02:58:26.580Z,13.7
2018-08-31T02:59:26.530Z,13.7
2018-08-31T03:00:26.441Z,13.7
2018-08-31T03:01:26.363Z,13.7
2018-08-31T03:02:26.281Z,13.7
2018-08-31T03:03:26.198Z,13.7
2018-08-31T03:04:26.540Z,13.7
2018-08-31T03:05:26.490Z,13.8
2018-08-31T03:06:26.636Z,13.8
2018-08-31T03:07:26.560Z,13.7
2018-08-31T03:08:26.475Z,13.7
2018-08-31T03:09:26.414Z,13.8
2018-08-31T03:10:26.332Z,13.8
2018-08-31T03:11:26.460Z,13.8
2018-08-31T03:12:26.612Z,13.7
2018-08-31T03:13:26.513Z,13.7
2018-08-31T03:14:26.882Z,13.7
2018-08-31T03:15:27.035Z,13.7
2018-08-31T03:16:26.951Z,13.8
2018-08-31T03:17:26.879Z,13.7
2018-08-31T03:18:26.800Z,13.8
2018-08-31T03:19:26.723Z,13.8
2018-08-31T03:20:26.642Z,13.9
2018-08-31T03:21:26.936Z,13.8
2018-08-31T03:22:27.496Z,13.9
2018-08-31T03:23:27.451Z,13.9
2018-08-31T03:24:28.041Z,13.9
2018-08-31T03:25:27.956Z,13.9
2018-08-31T03:26:27.885Z,14
2018-08-31T03:27:27.784Z,14
2018-08-31T03:28:27.717Z,14
2018-08-31T03:29:27.648Z,14
2018-08-31T03:30:27.618Z,14
2018-08-31T03:31:27.564Z,14
2018-08-31T03:32:27.516Z,13.9
2018-08-31T03:33:27.455Z,13.9
2018-08-31T03:34:27.896Z,13.9
2018-08-31T03:35:27.808Z,13.9
2018-08-31T03:36:27.725Z,13.9
2018-08-31T03:37:27.636Z,13.9
2018-08-31T03:38:27.574Z,13.9
2018-08-31T03:39:27.517Z,13.9
2018-08-31T03:40:27.432Z,13.9
2018-08-31T03:41:27.353Z,13.9
2018-08-31T03:42:27.263Z,13.9
2018-08-31T03:43:27.159Z,13.9
2018-08-31T03:44:27.614Z,13.9
2018-08-31T03:45:27.572Z,13.9
2018-08-31T03:46:27.490Z,14
2018-08-31T03:47:27.421Z,13.9
2018-08-31T03:48:27.333Z,14
2018-08-31T03:49:27.260Z,14
2018-08-31T03:50:27.174Z,14
2018-08-31T03:51:27.118Z,14
2018-08-31T03:52:27.024Z,14
2018-08-31T03:53:26.930Z,14.1
2018-08-31T03:54:27.304Z,14.1
2018-08-31T03:55:27.234Z,14
2018-08-31T03:56:27.156Z,14.1
2018-08-31T03:57:27.084Z,14
2018-08-31T03:58:26.987Z,14
2018-08-31T03:59:26.944Z,14
2018-08-31T04:00:26.853Z,14
2018-08-31T04:01:26.757Z,14
2018-08-31T04:02:26.739Z,14
2018-08-31T04:03:26.707Z,14
2018-08-31T04:04:27.094Z,14
2018-08-31T04:05:27.001Z,14
2018-08-31T04:06:26.907Z,14
2018-08-31T04:07:26.830Z,14
2018-08-31T04:08:26.733Z,14
2018-08-31T04:09:26.674Z,14
2018-08-31T04:10:26.704Z,14
2018-08-31T04:11:26.630Z,14
2018-08-31T04:12:26.560Z,14
2018-08-31T04:13:26.475Z,14.1
2018-08-31T04:14:26.818Z,14.1
2018-08-31T04:15:26.749Z,14.1
2018-08-31T04:16:26.688Z,14.1
2018-08-31T04:17:26.614Z,14.1
2018-08-31T04:18:26.522Z,14.1
2018-08-31T04:19:26.421Z,14.1
2018-08-31T04:20:26.369Z,14
2018-08-31T04:21:26.302Z,14
2018-08-31T04:22:26.221Z,14
2018-08-31T04:23:26.124Z,13.9
2018-08-31T04:24:26.497Z,13.9
2018-08-31T04:25:26.402Z,14
2018-08-31T04:26:26.308Z,14
2018-08-31T04:27:26.278Z,13.9
2018-08-31T04:28:26.191Z,13.9
2018-08-31T04:29:26.326Z,13.9
2018-08-31T04:30:26.233Z,13.9
2018-08-31T04:31:26.135Z,13.9
2018-08-31T04:32:26.092Z,13.7
2018-08-31T04:33:26.019Z,13.8
2018-08-31T04:34:26.588Z,13.8
2018-08-31T04:35:26.504Z,13.8
2018-08-31T04:36:26.429Z,13.9
2018-08-31T04:37:26.347Z,13.9
2018-08-31T04:38:26.259Z,13.8
2018-08-31T04:39:26.184Z,13.8
2018-08-31T04:40:26.108Z,13.8
2018-08-31T04:41:27.030Z,13.8
2018-08-31T04:42:26.931Z,13.8
2018-08-31T04:43:26.876Z,13.9
2018-08-31T04:44:27.270Z,13.8
2018-08-31T04:45:27.192Z,13.7
2018-08-31T04:46:27.091Z,13.8
2018-08-31T04:47:27.005Z,13.8
2018-08-31T04:48:26.940Z,13.8
2018-08-31T04:49:26.906Z,13.8
2018-08-31T04:50:27.312Z,13.8
2018-08-31T04:51:27.644Z,13.8
2018-08-31T04:52:27.575Z,13.8
2018-08-31T04:53:27.485Z,13.8
2018-08-31T04:54:27.852Z,13.7
2018-08-31T04:55:27.784Z,13.7
2018-08-31T04:56:27.735Z,13.7
2018-08-31T04:57:27.652Z,13.8
2018-08-31T04:58:27.567Z,13.8
2018-08-31T04:59:27.475Z,13.9
2018-08-31T05:00:27.402Z,13.9
2018-08-31T05:01:27.322Z,13.9
2018-08-31T05:02:27.243Z,13.9
2018-08-31T05:03:27.168Z,13.9
2018-08-31T05:04:27.550Z,14
2018-08-31T05:05:27.467Z,14
2018-08-31T05:06:27.380Z,14
2018-08-31T05:07:27.331Z,14
2018-08-31T05:08:27.235Z,14.1
2018-08-31T05:09:27.159Z,14.1
2018-08-31T05:10:27.077Z,14.1
2018-08-31T05:11:27.005Z,14.2
2018-08-31T05:12:26.921Z,14.1
2018-08-31T05:13:26.890Z,14.1
2018-08-31T05:14:27.275Z,14.1
2018-08-31T05:15:27.176Z,14.2
2018-08-31T05:16:27.091Z,14.2
2018-08-31T05:17:27.032Z,14.1
2018-08-31T05:18:26.960Z,14.1
2018-08-31T05:19:26.907Z,14.1
2018-08-31T05:20:26.810Z,14.1
2018-08-31T05:21:26.740Z,14.1
2018-08-31T05:22:26.815Z,14
2018-08-31T05:23:26.816Z,14.1
2018-08-31T05:24:27.303Z,14
2018-08-31T05:25:27.240Z,13.9
2018-08-31T05:26:27.179Z,14
2018-08-31T05:27:27.087Z,14
2018-08-31T05:28:27.349Z,14
2018-08-31T05:29:27.814Z,14
2018-08-31T05:30:27.746Z,14
2018-08-31T05:31:27.655Z,14
2018-08-31T05:32:27.583Z,14
2018-08-31T05:33:27.525Z,14
2018-08-31T05:34:27.999Z,14
2018-08-31T05:35:27.947Z,14
2018-08-31T05:36:27.882Z,14
2018-08-31T05:37:27.792Z,14
2018-08-31T05:38:27.705Z,13.9
2018-08-31T05:39:27.639Z,14
2018-08-31T05:40:27.541Z,14
2018-08-31T05:41:27.474Z,14
2018-08-31T05:42:27.426Z,13.9
2018-08-31T05:43:27.338Z,13.9
2018-08-31T05:44:27.700Z,13.9
2018-08-31T05:45:27.611Z,13.9
2018-08-31T05:46:27.515Z,13.9
2018-08-31T05:47:27.427Z,14
2018-08-31T05:48:27.371Z,14
2018-08-31T05:49:27.326Z,14
2018-08-31T05:50:27.235Z,14
2018-08-31T05:51:29.801Z,14
2018-08-31T05:52:29.704Z,14
2018-08-31T05:53:29.752Z,14
2018-08-31T05:54:30.505Z,14
2018-08-31T05:55:30.415Z,14
2018-08-31T05:56:30.319Z,14
2018-08-31T05:57:30.222Z,14
2018-08-31T05:58:30.114Z,14
2018-08-31T05:59:30.064Z,14.1
2018-08-31T06:00:29.976Z,14.1
2018-08-31T06:01:29.889Z,14
2018-08-31T06:02:29.809Z,14
2018-08-31T06:03:29.723Z,14
2018-08-31T06:04:30.136Z,14
2018-08-31T06:05:30.059Z,14
2018-08-31T06:06:29.977Z,14
2018-08-31T06:07:29.909Z,14
2018-08-31T06:08:29.824Z,13.9
2018-08-31T06:09:29.779Z,13.9
2018-08-31T06:10:29.694Z,13.9
2018-08-31T06:11:29.597Z,13.8
2018-08-31T06:12:29.493Z,13.9
2018-08-31T06:13:29.407Z,13.9
2018-08-31T06:14:29.765Z,13.8
2018-08-31T06:15:29.699Z,13.9
2018-08-31T06:16:29.607Z,13.9
2018-08-31T06:17:29.540Z,13.9
2018-08-31T06:18:29.459Z,13.9
2018-08-31T06:19:29.468Z,13.9
2018-08-31T06:20:29.386Z,13.9
2018-08-31T06:21:29.336Z,13.9
2018-08-31T06:22:29.264Z,14
2018-08-31T06:23:29.165Z,13.9
2018-08-31T06:24:29.538Z,13.9
2018-08-31T06:25:29.466Z,13.9
2018-08-31T06:26:29.400Z,13.9
2018-08-31T06:27:29.333Z,13.9
2018-08-31T06:28:29.257Z,13.9
2018-08-31T06:29:29.191Z,13.9
2018-08-31T06:30:29.118Z,13.9
2018-08-31T06:31:29.022Z,13.9
2018-08-31T06:32:29.029Z,13.9
2018-08-31T06:33:29.171Z,13.9
2018-08-31T06:34:29.969Z,13.9
2018-08-31T06:35:29.901Z,13.9
2018-08-31T06:36:29.830Z,14
2018-08-31T06:37:29.765Z,14
2018-08-31T06:38:29.692Z,14
2018-08-31T06:39:29.622Z,14
2018-08-31T06:40:29.544Z,14
2018-08-31T06:41:29.451Z,14.1
2018-08-31T06:42:29.362Z,14.2
2018-08-31T06:43:29.272Z,14.2
2018-08-31T06:44:29.612Z,14.2
2018-08-31T06:45:29.565Z,14.2
2018-08-31T06:46:29.471Z,14.2
2018-08-31T06:47:29.404Z,14.2
2018-08-31T06:48:29.328Z,14.2
2018-08-31T06:49:29.240Z,14.3
2018-08-31T06:50:29.147Z,14.3
2018-08-31T06:51:29.396Z,14.2
2018-08-31T06:52:29.747Z,14.1
2018-08-31T06:53:29.660Z,14.1
2018-08-31T06:54:30.445Z,14.1
2018-08-31T06:55:30.359Z,14.3
2018-08-31T06:56:30.301Z,14.2
2018-08-31T06:57:30.212Z,14.2
2018-08-31T06:58:30.118Z,14.2
2018-08-31T06:59:30.042Z,14.2
2018-08-31T07:00:29.960Z,14.2
2018-08-31T07:01:29.897Z,14.2
2018-08-31T07:02:29.838Z,14.1
2018-08-31T07:03:29.801Z,14.1
2018-08-31T07:04:30.193Z,14.1
2018-08-31T07:05:30.109Z,14.1
2018-08-31T07:06:30.045Z,14.1
2018-08-31T07:07:29.967Z,14.1
2018-08-31T07:08:29.910Z,14.1
2018-08-31T07:09:29.808Z,14.1
2018-08-31T07:10:29.715Z,14
2018-08-31T07:11:29.633Z,14
2018-08-31T07:12:29.798Z,14
2018-08-31T07:13:30.303Z,14
2018-08-31T07:14:30.668Z,14
2018-08-31T07:15:30.836Z,13.8
2018-08-31T07:16:30.762Z,13.9
2018-08-31T07:17:30.684Z,13.9
2018-08-31T07:18:30.597Z,14
2018-08-31T07:19:30.918Z,14
2018-08-31T07:20:30.860Z,14
2018-08-31T07:21:30.767Z,13.9
2018-08-31T07:22:30.700Z,13.9
2018-08-31T07:23:30.616Z,13.9
2018-08-31T07:24:30.980Z,14
2018-08-31T07:25:31.135Z,14
2018-08-31T07:26:31.713Z,14
2018-08-31T07:27:32.148Z,14
2018-08-31T07:28:32.051Z,14
2018-08-31T07:29:31.984Z,13.9
2018-08-31T07:30:31.945Z,14
2018-08-31T07:31:31.878Z,14
2018-08-31T07:32:31.910Z,14
2018-08-31T07:33:32.257Z,14.1
2018-08-31T07:34:32.623Z,14.1
2018-08-31T07:35:32.578Z,14.1
2018-08-31T07:36:32.478Z,14.1
2018-08-31T07:37:32.603Z,14.1
2018-08-31T07:38:32.502Z,14.2
2018-08-31T07:39:32.445Z,14.1
2018-08-31T07:40:32.379Z,14.1
2018-08-31T07:41:32.315Z,14.1
2018-08-31T07:42:32.228Z,14.1
2018-08-31T07:43:32.153Z,14.1
2018-08-31T07:44:32.742Z,14.1
2018-08-31T07:45:32.647Z,14.1
2018-08-31T07:46:33.248Z,14.1
2018-08-31T07:47:33.174Z,14.1
2018-08-31T07:48:33.140Z,14
2018-08-31T07:49:33.054Z,14
2018-08-31T07:50:32.970Z,14
2018-08-31T07:51:32.888Z,14.1
2018-08-31T07:52:32.822Z,14.2
2018-08-31T07:53:32.739Z,14
2018-08-31T07:54:33.128Z,14
2018-08-31T07:55:33.061Z,14.1
2018-08-31T07:56:32.982Z,14.1
2018-08-31T07:57:32.891Z,14.1
2018-08-31T07:58:32.884Z,14.1
2018-08-31T07:59:32.818Z,14.2
2018-08-31T08:00:32.735Z,14.2
2018-08-31T08:01:32.643Z,14.2
2018-08-31T08:02:32.553Z,14.2
2018-08-31T08:03:32.469Z,14.2
2018-08-31T08:04:32.870Z,14.2
2018-08-31T08:05:32.988Z,14.2
2018-08-31T08:06:33.231Z,14.2
2018-08-31T08:07:33.483Z,14.2
2018-08-31T08:08:34.007Z,14.2
2018-08-31T08:09:33.941Z,14.3
2018-08-31T08:10:33.857Z,14.2
2018-08-31T08:11:33.755Z,14.2
2018-08-31T08:12:33.666Z,14.2
2018-08-31T08:13:33.572Z,14.2
2018-08-31T08:14:34.094Z,14.2
2018-08-31T08:15:34.142Z,14.2
2018-08-31T08:16:34.062Z,14.2
2018-08-31T08:17:33.984Z,14.2
2018-08-31T08:18:33.909Z,14.2
2018-08-31T08:19:33.987Z,14.3
2018-08-31T08:20:34.101Z,14.3
2018-08-31T08:21:34.010Z,14.3
2018-08-31T08:22:33.938Z,14.4
2018-08-31T08:23:33.846Z,14.4
2018-08-31T08:24:34.196Z,14.3
2018-08-31T08:25:34.119Z,14.3
2018-08-31T08:26:34.069Z,14.3
2018-08-31T08:27:33.972Z,14.3
2018-08-31T08:28:33.881Z,14.4
2018-08-31T08:29:33.812Z,14.3
2018-08-31T08:30:33.729Z,14.4
2018-08-31T08:31:33.658Z,14.4
2018-08-31T08:32:33.567Z,14.4
2018-08-31T08:33:33.510Z,14.4
2018-08-31T08:34:33.845Z,14.5
2018-08-31T08:35:33.771Z,14.5
2018-08-31T08:36:33.706Z,14.5
2018-08-31T08:37:33.651Z,14.6
2018-08-31T08:38:33.558Z,14.6
2018-08-31T08:39:33.469Z,14.5
2018-08-31T08:40:33.410Z,14.5
2018-08-31T08:41:33.332Z,14.5
2018-08-31T08:42:33.630Z,14.5
2018-08-31T08:43:33.997Z,14.4
2018-08-31T08:44:35.048Z,14.4
2018-08-31T08:45:35.029Z,14.3
2018-08-31T08:46:34.943Z,14.3
2018-08-31T08:47:34.863Z,14.2
2018-08-31T08:48:35.650Z,14.3
2018-08-31T08:49:36.617Z,14.3
2018-08-31T08:50:36.526Z,14.3
2018-08-31T08:51:36.457Z,14.3
2018-08-31T08:52:36.364Z,14.3
2018-08-31T08:53:36.328Z,14.3
2018-08-31T08:54:36.708Z,14.3
2018-08-31T08:55:36.618Z,14.3
2018-08-31T08:56:36.565Z,14.3
2018-08-31T08:57:36.478Z,14.2
2018-08-31T08:58:36.506Z,14.2
2018-08-31T08:59:36.436Z,14.3
2018-08-31T09:00:36.369Z,14.1
2018-08-31T09:01:36.272Z,14.2
2018-08-31T09:02:36.199Z,14.2
2018-08-31T09:03:36.112Z,14.2
2018-08-31T09:04:36.475Z,14.2
2018-08-31T09:05:36.627Z,14.2
2018-08-31T09:06:36.847Z,14.1
2018-08-31T09:07:36.793Z,14.2
2018-08-31T09:08:36.711Z,14.2
2018-08-31T09:09:37.634Z,14.2
2018-08-31T09:10:37.594Z,14.2
2018-08-31T09:11:51.826Z,14.2
2018-08-31T09:12:52.759Z,14.1
2018-08-31T09:13:52.680Z,14.1
2018-08-31T09:14:53.279Z,14.1
2018-08-31T09:15:53.239Z,14.1
2018-08-31T09:16:53.382Z,14.1
2018-08-31T09:17:53.321Z,14.1
2018-08-31T09:18:53.241Z,14.1
2018-08-31T09:19:56.079Z,14.1
2018-08-31T09:20:56.090Z,14.1
2018-08-31T09:22:00.917Z,14.1
2018-08-31T09:23:00.854Z,14.1
2018-08-31T09:24:00.778Z,14.3
2018-08-31T09:25:10.309Z,14.1
2018-08-31T09:26:10.267Z,14.2
2018-08-31T09:27:15.095Z,14.1
2018-08-31T09:28:15.001Z,14.2
2018-08-31T09:29:17.592Z,14.2
2018-08-31T09:30:17.524Z,14.2
2018-08-31T09:31:17.714Z,14.2
2018-08-31T09:32:17.703Z,14.1
2018-08-31T09:33:18.291Z,14.2
2018-08-31T09:34:18.222Z,14.2
2018-08-31T09:35:19.281Z,14.1
2018-08-31T09:36:19.234Z,14.2
2018-08-31T09:37:30.115Z,14.2
2018-08-31T09:38:30.306Z,14.3
2018-08-31T09:39:30.725Z,14.4
2018-08-31T09:40:37.687Z,14.4
2018-08-31T09:41:37.643Z,14.4
2018-08-31T09:42:37.660Z,14.4
2018-08-31T09:43:37.585Z,14.4
2018-08-31T09:44:37.731Z,14.4
2018-08-31T09:45:38.380Z,14.4
2018-08-31T09:46:38.304Z,14.4
2018-08-31T09:47:38.992Z,14.3
2018-08-31T09:48:41.919Z,14.4
2018-08-31T09:49:42.083Z,14.4
2018-08-31T09:50:42.450Z,14.5
2018-08-31T09:51:42.383Z,14.5
2018-08-31T09:52:42.305Z,14.6
2018-08-31T09:53:44.239Z,14.6
2018-08-31T09:54:44.194Z,14.6
2018-08-31T09:55:45.072Z,14.7
2018-08-31T09:56:44.999Z,14.7
2018-08-31T09:57:44.906Z,14.7
2018-08-31T09:58:44.867Z,14.6
2018-08-31T09:59:44.774Z,14.6
2018-08-31T10:00:45.745Z,14.6
2018-08-31T10:01:45.679Z,14.6
2018-08-31T10:02:45.635Z,14.6
2018-08-31T10:03:45.638Z,14.6
2018-08-31T10:04:45.592Z,14.6
2018-08-31T10:05:48.911Z,14.6
2018-08-31T10:06:53.730Z,14.6
2018-08-31T10:07:53.663Z,14.6
2018-08-31T10:08:54.685Z,14.6
2018-08-31T10:09:54.608Z,14.6
2018-08-31T10:11:04.981Z,14.5
2018-08-31T10:12:06.126Z,14.5
2018-08-31T10:13:06.680Z,14.6
2018-08-31T10:14:11.643Z,14.5
2018-08-31T10:15:12.390Z,14.6
2018-08-31T10:16:17.710Z,14.6
2018-08-31T10:17:18.957Z,14.3
2018-08-31T10:18:19.512Z,14.4
2018-08-31T10:19:19.940Z,14.4
2018-08-31T10:20:20.327Z,14.5
2018-08-31T10:21:20.700Z,14.5
2018-08-31T10:22:21.580Z,14.5
2018-08-31T10:23:22.614Z,14.5
2018-08-31T10:24:22.538Z,14.5
2018-08-31T10:25:22.470Z,14.4
2018-08-31T10:26:23.050Z,14.5
2018-08-31T10:27:23.008Z,14.5
2018-08-31T10:28:22.926Z,14.4
2018-08-31T10:29:23.066Z,14.4
2018-08-31T10:30:22.984Z,14.4
2018-08-31T10:31:22.908Z,14.4
2018-08-31T10:32:22.823Z,14.5
2018-08-31T10:33:22.798Z,14.5
2018-08-31T10:34:22.710Z,14.5
2018-08-31T10:35:22.635Z,14.5
2018-08-31T10:36:23.047Z,14.5
2018-08-31T10:37:22.994Z,14.5
2018-08-31T10:38:22.924Z,14.5
2018-08-31T10:39:24.431Z,14.4
2018-08-31T10:40:24.348Z,14.4
2018-08-31T10:41:24.255Z,14.3
2018-08-31T10:42:24.174Z,14.4
2018-08-31T10:43:24.291Z,14.5
2018-08-31T10:44:25.244Z,14.5
2018-08-31T10:45:28.223Z,14.4
2018-08-31T10:46:28.957Z,14.4
2018-08-31T10:47:31.102Z,14.4
2018-08-31T10:48:31.027Z,14.3
2018-08-31T10:49:32.265Z,14.3
2018-08-31T10:50:32.190Z,14.4
2018-08-31T10:51:32.134Z,14.3
2018-08-31T10:52:32.065Z,14.3
2018-08-31T10:53:32.009Z,14.4
2018-08-31T10:54:31.946Z,14.4
2018-08-31T10:55:31.880Z,14.5
2018-08-31T10:56:32.501Z,14.5
2018-08-31T10:57:33.103Z,14.6
2018-08-31T10:58:33.047Z,14.6
2018-08-31T10:59:32.983Z,14.6
2018-08-31T11:00:33.901Z,14.6
2018-08-31T11:01:36.850Z,14.6
2018-08-31T11:02:39.901Z,14.6
2018-08-31T11:03:42.553Z,14.7
2018-08-31T11:04:42.458Z,14.6
2018-08-31T11:05:42.629Z,14.4
2018-08-31T11:06:49.930Z,14.4
2018-08-31T11:07:49.839Z,14.5
2018-08-31T11:08:49.776Z,14.5
2018-08-31T11:09:49.681Z,14.6
2018-08-31T11:10:49.615Z,14.7
2018-08-31T11:11:52.267Z,14.7
2018-08-31T11:12:52.296Z,14.7
2018-08-31T11:13:52.398Z,14.7
2018-08-31T11:14:52.312Z,14.6
2018-08-31T11:15:54.284Z,14.6
2018-08-31T11:16:54.684Z,14.6
2018-08-31T11:17:54.600Z,14.6
2018-08-31T11:18:54.782Z,14.6
2018-08-31T11:19:55.120Z,14.7
2018-08-31T11:20:56.062Z,14.7
2018-08-31T11:21:55.970Z,14.7
2018-08-31T11:22:55.895Z,14.6
2018-08-31T11:23:55.836Z,14.7
2018-08-31T11:24:56.466Z,14.6
2018-08-31T11:25:56.407Z,14.7
2018-08-31T11:26:56.789Z,14.7
2018-08-31T11:27:57.125Z,14.7
2018-08-31T11:28:57.456Z,14.8
2018-08-31T11:29:57.364Z,14.8
2018-08-31T11:30:57.273Z,14.7
2018-08-31T11:31:57.238Z,14.7
2018-08-31T11:32:57.137Z,14.7
2018-08-31T11:33:57.068Z,14.7
2018-08-31T11:34:56.966Z,14.7
2018-08-31T11:35:56.975Z,14.6
2018-08-31T11:36:57.603Z,14.6
2018-08-31T11:37:57.609Z,14.5
2018-08-31T11:38:57.564Z,14.5
2018-08-31T11:39:57.469Z,14.5
2018-08-31T11:40:57.421Z,14.5
2018-08-31T11:41:57.357Z,14.5
2018-08-31T11:42:57.296Z,14.5
2018-08-31T11:44:01.029Z,14.6
2018-08-31T11:45:00.981Z,14.6
2018-08-31T11:46:00.909Z,14.6
2018-08-31T11:47:01.278Z,14.5
2018-08-31T11:48:01.188Z,14.5
2018-08-31T11:49:02.113Z,14.4
2018-08-31T11:50:02.264Z,14.4
2018-08-31T11:51:02.175Z,14.5
2018-08-31T11:52:02.112Z,14.6
2018-08-31T11:53:02.047Z,14.6
2018-08-31T11:54:04.967Z,14.5
2018-08-31T11:55:04.984Z,14.5
2018-08-31T11:56:05.046Z,14.5
2018-08-31T11:57:08.463Z,14.5
2018-08-31T11:58:08.385Z,14.6
2018-08-31T11:59:08.325Z,14.4
2018-08-31T12:00:08.234Z,14.4
2018-08-31T12:01:08.691Z,14.4
2018-08-31T12:02:09.600Z,14.5
2018-08-31T12:03:09.691Z,14.5
2018-08-31T12:04:09.623Z,14.5
2018-08-31T12:05:09.550Z,14.4
2018-08-31T12:06:09.457Z,14.5
2018-08-31T12:07:09.856Z,14.6
2018-08-31T12:08:09.831Z,14.6
2018-08-31T12:09:09.757Z,14.6
2018-08-31T12:10:09.698Z,14.6
2018-08-31T12:11:09.625Z,14.7
2018-08-31T12:12:09.524Z,14.7
2018-08-31T12:13:09.691Z,14.8
2018-08-31T12:14:09.637Z,14.6
2018-08-31T12:15:09.561Z,14.6
2018-08-31T12:16:09.468Z,14.6
2018-08-31T12:17:09.806Z,14.6
2018-08-31T12:18:09.740Z,14.6
2018-08-31T12:19:09.677Z,14.5
2018-08-31T12:20:09.585Z,14.5
2018-08-31T12:21:09.593Z,14.5
2018-08-31T12:22:09.666Z,14.5
2018-08-31T12:23:09.580Z,14.5
2018-08-31T12:24:09.494Z,14.5
2018-08-31T12:25:09.444Z,14.5
2018-08-31T12:26:09.358Z,14.6
2018-08-31T12:27:12.868Z,14.5
2018-08-31T12:28:12.786Z,14.5
2018-08-31T12:29:12.733Z,14.5
2018-08-31T12:30:12.681Z,14.5
2018-08-31T12:31:12.575Z,14.6
2018-08-31T12:32:12.516Z,14.5
2018-08-31T12:33:12.913Z,14.5
2018-08-31T12:34:12.840Z,14.5
2018-08-31T12:35:12.758Z,14.4
2018-08-31T12:36:12.708Z,14.4
2018-08-31T12:37:13.074Z,14.4
2018-08-31T12:38:12.962Z,14.4
2018-08-31T12:39:12.877Z,14.4
2018-08-31T12:40:12.786Z,14.5
2018-08-31T12:41:12.725Z,14.3
2018-08-31T12:42:12.634Z,14.3
2018-08-31T12:43:12.549Z,14.4
2018-08-31T12:44:12.620Z,14.4
2018-08-31T12:45:12.966Z,14.3
2018-08-31T12:46:12.899Z,14.3
2018-08-31T12:47:13.294Z,14.2
2018-08-31T12:48:13.215Z,14.1
2018-08-31T12:49:13.127Z,14.1
2018-08-31T12:50:13.095Z,14.1
2018-08-31T12:51:13.013Z,14.1
2018-08-31T12:52:13.227Z,14.1
2018-08-31T12:53:13.135Z,14
2018-08-31T12:54:14.079Z,14.1
2018-08-31T12:55:14.244Z,14.2
2018-08-31T12:56:14.165Z,14.1
2018-08-31T12:57:14.575Z,14.1
2018-08-31T12:58:14.498Z,14.1
2018-08-31T12:59:14.395Z,14.1
2018-08-31T13:00:14.600Z,14.2
2018-08-31T13:01:16.232Z,14.3
2018-08-31T13:02:16.178Z,14.2
2018-08-31T13:03:16.080Z,14.2
2018-08-31T13:04:15.982Z,14.3
2018-08-31T13:05:15.918Z,14.2
2018-08-31T13:06:16.070Z,14.2
2018-08-31T13:07:16.487Z,14.3
2018-08-31T13:08:16.425Z,14.4
2018-08-31T13:09:16.348Z,14.4
2018-08-31T13:10:16.316Z,14.2
2018-08-31T13:11:16.240Z,14.2
2018-08-31T13:12:16.150Z,14.2
2018-08-31T13:13:16.090Z,14.2
2018-08-31T13:14:16.013Z,14.2
2018-08-31T13:15:15.917Z,14.2
2018-08-31T13:16:15.838Z,14.1
2018-08-31T13:17:16.427Z,14.1
2018-08-31T13:18:16.340Z,14
2018-08-31T13:19:16.328Z,14
2018-08-31T13:20:16.240Z,14.1
2018-08-31T13:21:16.157Z,14.2
2018-08-31T13:22:16.067Z,14.3
2018-08-31T13:23:15.988Z,14.2
2018-08-31T13:24:15.926Z,14
2018-08-31T13:25:16.171Z,14
2018-08-31T13:26:16.522Z,14.1
2018-08-31T13:27:16.865Z,14.2
2018-08-31T13:28:19.538Z,14.4
2018-08-31T13:29:19.487Z,14.2
2018-08-31T13:30:19.406Z,14.2